< < Back
Terminal Aerodrome Forecast


Current Version              Previous Versions:   1  2  3  4  5  6  7  8  9  

Terminal Aerodrome Forecast

332
FTUS42 KCHS 291135
TAFCHS
TAF
KCHS 291135Z 2912/3012 04007KT P6SM SCT025 BKN200
     FM291800 09009KT P6SM BKN040
     FM300000 07003KT P6SM SCT030 BKN150
     FM300800 04003KT P6SM VCSH SCT015 BKN100=

Latest METAR

104
SAUS80 KWBC 292100
MTRCHS
METAR KCHS 292056Z 02005KT 10SM FEW035 FEW120 BKN200 28/19 A3011 RMK AO2
SLP196 60000 T02780194 58017


USA.gov is the U.S. government's official web portal to all federal, state and local government web resources and services.